Time;durP1;ratioP1;P1;durP2;ratioP2;P2;SDS_P1;SDS_P2;PMS_P1;PMS_P2;Temp;Humidity;BMP_temperature;BMP_pressure;BME280_temperature;BME280_humidity;BME280_pressure;Samples;Min_cycle;Max_cycle;Signal;HPM_P1;HPM_P2
2023/10/26 00:01:42;;;;;;;18.37;11.33;;;;;;;;;;5058889;27;88085;-53
2023/10/26 00:04:12;;;;;;;19.70;9.93;;;;;;;;;;5058625;27;88973;-53
2023/10/26 00:06:42;;;;;;;14.67;8.87;;;;;;;;;;5059219;27;88055;-53
2023/10/26 00:09:10;;;;;;;16.00;9.07;;;;;;;;;;5058820;27;89669;-53
2023/10/26 00:11:38;;;;;;;20.63;12.33;;;;;;;;;;5059100;27;88573;-54
2023/10/26 00:14:07;;;;;;;17.90;9.73;;;;;;;;;;5058473;27;89016;-54
2023/10/26 00:16:35;;;;;;;18.00;10.40;;;;;;;;;;5058428;27;88092;-53
2023/10/26 00:19:04;;;;;;;15.23;10.43;;;;;;;;;;5058179;27;89869;-54
2023/10/26 00:21:34;;;;;;;20.60;10.37;;;;;;;;;;5057892;27;89021;-54
2023/10/26 00:24:02;;;;;;;19.17;10.30;;;;;;;;;;5057532;27;87864;-54
2023/10/26 00:26:30;;;;;;;18.17;10.57;;;;;;;;;;5056939;27;87431;-53
2023/10/26 00:28:59;;;;;;;15.40;10.43;;;;;;;;;;5051660;27;88526;-54
2023/10/26 00:31:27;;;;;;;16.33;9.17;;;;;;;;;;5057016;27;88999;-53
2023/10/26 00:33:55;;;;;;;16.43;10.97;;;;;;;;;;5058279;27;88885;-53
2023/10/26 00:36:24;;;;;;;17.53;10.00;;;;;;;;;;5058056;27;87707;-53
2023/10/26 00:38:53;;;;;;;17.17;9.73;;;;;;;;;;5058050;27;89579;-53
2023/10/26 00:41:22;;;;;;;15.50;8.80;;;;;;;;;;5057454;27;90192;-53
2023/10/26 00:43:51;;;;;;;18.30;10.87;;;;;;;;;;5058811;27;89783;-53
2023/10/26 00:46:19;;;;;;;17.80;9.43;;;;;;;;;;5056924;27;87616;-53
2023/10/26 00:48:48;;;;;;;15.33;9.00;;;;;;;;;;5059571;27;88481;-53
2023/10/26 00:51:17;;;;;;;13.07;8.53;;;;;;;;;;5059605;27;89153;-54
2023/10/26 00:53:44;;;;;;;11.33;7.57;;;;;;;;;;5057964;27;87619;-54
2023/10/26 00:56:14;;;;;;;16.20;9.17;;;;;;;;;;5058464;27;87693;-53
2023/10/26 00:58:42;;;;;;;16.33;8.93;;;;;;;;;;5057513;27;87567;-53
2023/10/26 01:01:11;;;;;;;17.20;9.37;;;;;;;;;;5058054;27;89210;-53
2023/10/26 01:03:39;;;;;;;15.23;8.60;;;;;;;;;;5056263;27;88859;-53
2023/10/26 01:06:08;;;;;;;18.47;8.87;;;;;;;;;;5057726;27;88335;-53
2023/10/26 01:08:37;;;;;;;14.43;8.50;;;;;;;;;;5058255;27;88516;-53
2023/10/26 01:11:05;;;;;;;15.73;9.00;;;;;;;;;;5058226;27;89083;-53
2023/10/26 01:13:35;;;;;;;15.93;9.53;;;;;;;;;;5057964;27;88634;-53
2023/10/26 01:16:04;;;;;;;14.03;8.67;;;;;;;;;;5057848;27;87781;-53
2023/10/26 01:18:33;;;;;;;12.83;6.83;;;;;;;;;;5061668;27;89799;-53
2023/10/26 01:21:01;;;;;;;12.43;8.80;;;;;;;;;;5061519;27;89179;-53
2023/10/26 01:23:31;;;;;;;12.93;7.27;;;;;;;;;;5061802;27;87982;-53
2023/10/26 01:25:59;;;;;;;10.10;7.23;;;;;;;;;;5060740;27;87667;-53
2023/10/26 01:28:27;;;;;;;17.60;9.40;;;;;;;;;;5061008;27;89627;-54
2023/10/26 01:30:56;;;;;;;11.20;6.77;;;;;;;;;;5060752;27;90318;-53
2023/10/26 01:33:24;;;;;;;13.10;6.63;;;;;;;;;;5061275;27;88632;-53
2023/10/26 01:35:53;;;;;;;13.93;6.97;;;;;;;;;;5061565;27;87588;-53
2023/10/26 01:38:21;;;;;;;12.80;7.63;;;;;;;;;;5060723;27;89819;-53
2023/10/26 01:40:52;;;;;;;15.20;6.93;;;;;;;;;;5061278;27;89090;-53
2023/10/26 01:43:20;;;;;;;11.27;6.77;;;;;;;;;;5059070;27;88874;-53
2023/10/26 01:45:48;;;;;;;14.90;7.93;;;;;;;;;;5061509;27;88413;-53
2023/10/26 01:48:17;;;;;;;11.97;7.00;;;;;;;;;;5061282;27;89552;-53
2023/10/26 01:50:45;;;;;;;9.23;6.17;;;;;;;;;;5059252;27;88892;-53
2023/10/26 01:53:14;;;;;;;7.53;5.30;;;;;;;;;;5061785;27;89327;-54
2023/10/26 01:55:42;;;;;;;11.97;6.50;;;;;;;;;;5060463;27;87952;-53
2023/10/26 01:58:12;;;;;;;9.10;6.23;;;;;;;;;;5060958;27;88000;-53
2023/10/26 02:00:40;;;;;;;12.63;7.07;;;;;;;;;;5061291;27;88156;-53
2023/10/26 02:03:08;;;;;;;9.63;6.17;;;;;;;;;;5060683;27;90129;-54
2023/10/26 02:05:37;;;;;;;9.27;5.73;;;;;;;;;;5061319;27;88379;-53
2023/10/26 02:08:06;;;;;;;8.17;6.07;;;;;;;;;;5060186;27;89635;-53
2023/10/26 02:10:34;;;;;;;10.67;6.23;;;;;;;;;;5060692;27;88006;-53
2023/10/26 02:13:03;;;;;;;9.57;4.73;;;;;;;;;;5061265;27;88839;-53
2023/10/26 02:15:33;;;;;;;11.03;6.33;;;;;;;;;;5059513;27;89198;-53
2023/10/26 02:18:01;;;;;;;10.90;5.73;;;;;;;;;;5058056;27;88547;-54
2023/10/26 02:20:30;;;;;;;9.13;5.17;;;;;;;;;;5060025;27;88945;-53
2023/10/26 02:22:58;;;;;;;10.90;6.47;;;;;;;;;;5060647;27;89749;-54
2023/10/26 02:25:26;;;;;;;10.37;7.07;;;;;;;;;;5060951;27;87668;-53
2023/10/26 02:27:55;;;;;;;11.13;7.17;;;;;;;;;;5059240;27;89872;-54
2023/10/26 02:30:23;;;;;;;7.90;5.33;;;;;;;;;;5059299;27;88043;-53
2023/10/26 02:32:53;;;;;;;8.17;5.37;;;;;;;;;;5060339;27;88856;-53
2023/10/26 02:35:22;;;;;;;8.27;5.47;;;;;;;;;;5060965;27;87607;-53
2023/10/26 02:37:50;;;;;;;8.70;5.63;;;;;;;;;;5060541;27;89308;-54
2023/10/26 02:40:19;;;;;;;8.63;4.80;;;;;;;;;;5060400;27;88041;-53
2023/10/26 02:42:47;;;;;;;7.77;5.33;;;;;;;;;;5056347;27;87738;-53
2023/10/26 02:45:15;;;;;;;6.97;5.37;;;;;;;;;;5057894;27;87843;-53
2023/10/26 02:47:44;;;;;;;7.57;4.53;;;;;;;;;;5056815;27;89772;-53
2023/10/26 02:50:14;;;;;;;8.17;4.90;;;;;;;;;;5057580;27;89018;-53
2023/10/26 02:52:43;;;;;;;10.87;6.03;;;;;;;;;;5055082;27;87750;-53
2023/10/26 02:55:11;;;;;;;9.10;4.43;;;;;;;;;;5057392;27;87704;-53
2023/10/26 02:57:40;;;;;;;8.07;4.30;;;;;;;;;;5057078;27;87970;-54
2023/10/26 03:00:09;;;;;;;8.53;5.43;;;;;;;;;;5057106;27;89267;-53
2023/10/26 03:02:37;;;;;;;6.87;4.53;;;;;;;;;;5057415;27;87796;-53
2023/10/26 03:05:06;;;;;;;5.50;3.93;;;;;;;;;;5056962;27;87904;-53
2023/10/26 03:07:36;;;;;;;5.73;4.17;;;;;;;;;;5057371;27;89757;-53
2023/10/26 03:10:05;;;;;;;7.67;4.07;;;;;;;;;;5056524;27;89075;-53
2023/10/26 03:12:33;;;;;;;7.33;4.10;;;;;;;;;;5056637;27;89819;-53
2023/10/26 03:15:02;;;;;;;6.43;4.27;;;;;;;;;;5056513;27;88706;-53
2023/10/26 03:17:30;;;;;;;7.17;4.97;;;;;;;;;;5057057;27;87513;-53
2023/10/26 03:19:59;;;;;;;6.60;4.77;;;;;;;;;;5056407;27;88191;-53
2023/10/26 03:22:27;;;;;;;6.63;4.33;;;;;;;;;;5056887;27;87936;-53
2023/10/26 03:24:57;;;;;;;6.40;3.57;;;;;;;;;;5056617;27;87732;-54
2023/10/26 03:27:25;;;;;;;8.30;3.50;;;;;;;;;;5056925;27;88689;-53
2023/10/26 03:29:54;;;;;;;3.57;3.20;;;;;;;;;;5055170;27;87672;-53
2023/10/26 03:32:22;;;;;;;7.13;3.60;;;;;;;;;;5056334;27;87677;-53
2023/10/26 03:34:52;;;;;;;7.17;3.80;;;;;;;;;;5056651;27;88401;-53
2023/10/26 03:37:20;;;;;;;8.03;4.00;;;;;;;;;;5056032;27;88781;-53
2023/10/26 03:39:49;;;;;;;5.17;3.37;;;;;;;;;;5055677;27;88221;-53
2023/10/26 03:42:18;;;;;;;4.27;3.00;;;;;;;;;;5056522;27;89202;-53
2023/10/26 03:44:47;;;;;;;5.47;3.33;;;;;;;;;;5056651;27;87639;-53
2023/10/26 03:47:17;;;;;;;5.43;3.80;;;;;;;;;;5056515;27;88809;-54
2023/10/26 03:49:46;;;;;;;6.53;3.00;;;;;;;;;;5056025;27;89344;-53
2023/10/26 03:52:14;;;;;;;5.77;3.73;;;;;;;;;;5056037;27;88489;-53
2023/10/26 03:54:42;;;;;;;6.53;3.83;;;;;;;;;;5057211;27;87650;-53
2023/10/26 03:57:11;;;;;;;5.27;3.43;;;;;;;;;;5057229;27;89773;-54
2023/10/26 03:59:41;;;;;;;2.50;2.23;;;;;;;;;;5053641;27;91135;-54
2023/10/26 04:02:10;;;;;;;4.23;3.40;;;;;;;;;;5057589;27;88733;-53
2023/10/26 04:04:39;;;;;;;7.77;3.20;;;;;;;;;;5057177;27;87686;-53
2023/10/26 04:07:07;;;;;;;5.10;3.77;;;;;;;;;;5057412;27;89086;-53
2023/10/26 04:09:36;;;;;;;4.17;2.70;;;;;;;;;;5056853;27;89120;-53
2023/10/26 04:12:05;;;;;;;5.50;2.90;;;;;;;;;;5057230;27;88025;-54
2023/10/26 04:14:33;;;;;;;4.47;3.00;;;;;;;;;;5056155;27;87704;-54
2023/10/26 04:17:05;;;;;;;3.60;3.00;;;;;;;;;;5052727;27;88500;-53
2023/10/26 04:19:34;;;;;;;4.80;2.83;;;;;;;;;;5059632;27;88890;-53
2023/10/26 04:22:05;;;;;;;4.40;2.70;;;;;;;;;;5058089;27;88788;-53
2023/10/26 04:24:34;;;;;;;5.13;2.93;;;;;;;;;;5059977;27;87995;-53
2023/10/26 04:27:03;;;;;;;4.87;2.50;;;;;;;;;;5057423;27;89822;-53
2023/10/26 04:29:32;;;;;;;4.37;2.67;;;;;;;;;;5059133;27;88264;-53
2023/10/26 04:32:00;;;;;;;5.30;3.23;;;;;;;;;;5057486;27;87743;-53
2023/10/26 04:34:30;;;;;;;5.40;2.00;;;;;;;;;;5060145;27;87729;-53
2023/10/26 04:36:59;;;;;;;2.90;2.00;;;;;;;;;;5059519;27;89735;-53
2023/10/26 04:39:28;;;;;;;3.43;2.37;;;;;;;;;;5059003;27;87999;-53
2023/10/26 04:41:56;;;;;;;5.27;2.67;;;;;;;;;;5059386;27;87953;-53
2023/10/26 04:44:25;;;;;;;3.77;2.13;;;;;;;;;;5059924;27;87398;-53
2023/10/26 04:46:53;;;;;;;2.37;1.87;;;;;;;;;;5059705;27;89713;-53
2023/10/26 04:49:21;;;;;;;3.30;2.40;;;;;;;;;;5056668;27;88985;-53
2023/10/26 04:51:51;;;;;;;4.40;2.40;;;;;;;;;;5060719;27;89559;-53
2023/10/26 04:54:19;;;;;;;4.23;2.20;;;;;;;;;;5063403;27;87652;-54
2023/10/26 04:56:48;;;;;;;5.53;2.50;;;;;;;;;;5062521;27;88325;-54
2023/10/26 04:59:16;;;;;;;2.87;2.10;;;;;;;;;;5063084;27;89096;-54
2023/10/26 05:01:44;;;;;;;3.20;2.47;;;;;;;;;;5063281;27;90305;-54
2023/10/26 05:04:13;;;;;;;3.17;2.27;;;;;;;;;;5063550;27;87632;-54
2023/10/26 05:06:41;;;;;;;2.93;2.53;;;;;;;;;;5060793;27;88560;-54
2023/10/26 05:09:11;;;;;;;3.50;2.37;;;;;;;;;;5063070;27;89121;-54
2023/10/26 05:11:39;;;;;;;2.80;2.23;;;;;;;;;;5062576;27;88837;-54
2023/10/26 05:14:09;;;;;;;4.17;1.93;;;;;;;;;;5062464;27;88027;-54
2023/10/26 05:16:37;;;;;;;2.67;2.07;;;;;;;;;;5062398;27;89646;-54
2023/10/26 05:19:06;;;;;;;4.67;2.73;;;;;;;;;;5060660;27;89444;-53
2023/10/26 05:21:34;;;;;;;3.30;1.93;;;;;;;;;;5061843;27;88574;-54
2023/10/26 05:24:03;;;;;;;2.67;2.40;;;;;;;;;;5060955;27;87386;-54
2023/10/26 05:26:33;;;;;;;3.93;3.00;;;;;;;;;;5062594;27;89736;-55
2023/10/26 05:29:03;;;;;;;3.73;2.63;;;;;;;;;;5059952;27;89212;-55
2023/10/26 05:31:32;;;;;;;6.53;3.23;;;;;;;;;;5062590;27;87545;-57
2023/10/26 05:34:01;;;;;;;4.17;3.53;;;;;;;;;;5058613;27;87603;-56
2023/10/26 05:36:29;;;;;;;9.87;3.47;;;;;;;;;;5059872;27;89988;-55
2023/10/26 05:38:57;;;;;;;3.50;3.17;;;;;;;;;;5061538;27;90076;-55
2023/10/26 05:41:26;;;;;;;4.20;3.30;;;;;;;;;;5061877;27;88748;-55
2023/10/26 05:43:55;;;;;;;4.23;3.07;;;;;;;;;;5062488;27;87631;-55
2023/10/26 05:46:24;;;;;;;6.33;3.53;;;;;;;;;;5061966;27;88553;-55
2023/10/26 05:48:52;;;;;;;2.67;2.43;;;;;;;;;;5062006;27;88077;-56
2023/10/26 05:51:20;;;;;;;2.60;2.00;;;;;;;;;;5059518;27;88816;-56
2023/10/26 05:53:49;;;;;;;3.23;2.10;;;;;;;;;;5062381;27;87586;-56
2023/10/26 05:56:17;;;;;;;2.50;2.30;;;;;;;;;;5061733;27;89602;-56
2023/10/26 05:58:45;;;;;;;2.47;2.07;;;;;;;;;;5061945;27;88891;-56
2023/10/26 06:01:15;;;;;;;4.63;2.27;;;;;;;;;;5061402;27;88878;-55
2023/10/26 06:03:44;;;;;;;1.90;1.63;;;;;;;;;;5059290;27;87942;-55
2023/10/26 06:06:12;;;;;;;4.87;2.17;;;;;;;;;;5061238;27;89737;-56
2023/10/26 06:08:40;;;;;;;2.80;2.03;;;;;;;;;;5058977;27;89233;-56
2023/10/26 06:11:09;;;;;;;6.77;2.20;;;;;;;;;;5061768;27;88811;-56
2023/10/26 06:13:38;;;;;;;3.27;1.80;;;;;;;;;;5061754;27;87831;-56
2023/10/26 06:16:07;;;;;;;1.50;1.40;;;;;;;;;;5061135;27;89626;-56
2023/10/26 06:18:36;;;;;;;2.10;1.93;;;;;;;;;;5061537;27;88084;-56
2023/10/26 06:21:05;;;;;;;4.00;2.07;;;;;;;;;;5060067;27;88954;-56
2023/10/26 06:23:34;;;;;;;2.90;1.93;;;;;;;;;;5061466;27;87749;-56
2023/10/26 06:26:02;;;;;;;2.07;1.80;;;;;;;;;;5058723;27;89714;-56
2023/10/26 06:28:31;;;;;;;1.60;1.50;;;;;;;;;;5058078;27;90100;-56
2023/10/26 06:31:08;;;;;;;1.63;1.30;;;;;;;;;;5060081;27;89714;-56
2023/10/26 06:33:38;;;;;;;1.73;1.10;;;;;;;;;;5059863;27;87674;-56
2023/10/26 06:36:07;;;;;;;1.90;1.70;;;;;;;;;;5061164;27;88733;-55
2023/10/26 06:38:36;;;;;;;1.57;1.27;;;;;;;;;;5060181;27;87680;-55
2023/10/26 06:41:05;;;;;;;1.87;1.73;;;;;;;;;;5060628;27;87654;-55
2023/10/26 06:43:33;;;;;;;2.33;1.53;;;;;;;;;;5060583;27;87641;-55
2023/10/26 06:46:01;;;;;;;1.90;1.63;;;;;;;;;;5060232;27;89719;-55
2023/10/26 06:48:30;;;;;;;6.67;1.50;;;;;;;;;;5060557;27;89298;-55
2023/10/26 06:51:00;;;;;;;2.03;1.47;;;;;;;;;;5061243;27;87331;-57
2023/10/26 06:53:29;;;;;;;2.57;1.90;;;;;;;;;;5059523;27;89688;-54
2023/10/26 06:55:58;;;;;;;4.70;1.60;;;;;;;;;;5060701;27;89572;-55
2023/10/26 06:58:27;;;;;;;1.33;1.23;;;;;;;;;;5060263;27;89202;-55
2023/10/26 07:00:55;;;;;;;2.70;1.43;;;;;;;;;;5060392;27;87903;-55
2023/10/26 07:03:24;;;;;;;2.73;1.43;;;;;;;;;;5060019;27;87583;-56
2023/10/26 07:05:53;;;;;;;3.27;1.70;;;;;;;;;;5060032;27;88077;-56
2023/10/26 07:08:22;;;;;;;1.80;1.30;;;;;;;;;;5058192;27;89121;-56
2023/10/26 07:10:51;;;;;;;2.23;1.63;;;;;;;;;;5061225;27;89197;-55
2023/10/26 07:13:19;;;;;;;2.73;1.70;;;;;;;;;;5061167;27;87700;-55
2023/10/26 07:15:47;;;;;;;2.10;1.83;;;;;;;;;;5060029;27;89582;-55
2023/10/26 07:18:18;;;;;;;2.93;1.60;;;;;;;;;;5059221;27;89143;-55
2023/10/26 07:20:48;;;;;;;2.33;1.37;;;;;;;;;;5058568;27;89828;-55
2023/10/26 07:23:17;;;;;;;1.80;1.60;;;;;;;;;;5060976;27;87618;-55
2023/10/26 07:25:47;;;;;;;1.90;1.27;;;;;;;;;;5061016;27;89283;-55
2023/10/26 07:28:18;;;;;;;2.10;1.60;;;;;;;;;;5060654;27;89028;-55
2023/10/26 07:30:50;;;;;;;1.60;1.13;;;;;;;;;;5057494;27;90348;-55
2023/10/26 07:33:19;;;;;;;2.13;1.43;;;;;;;;;;5060203;27;87671;-55
2023/10/26 07:35:51;;;;;;;2.13;1.03;;;;;;;;;;5060741;27;89831;-55
2023/10/26 07:38:20;;;;;;;2.93;1.73;;;;;;;;;;5060324;27;89056;-55
2023/10/26 07:41:07;;;;;;;2.77;1.70;;;;;;;;;;5060533;27;89076;-55
2023/10/26 07:43:35;;;;;;;5.00;1.97;;;;;;;;;;5057652;27;88034;-55
2023/10/26 07:46:04;;;;;;;1.50;1.40;;;;;;;;;;5057493;27;87442;-55
2023/10/26 07:48:32;;;;;;;1.63;1.27;;;;;;;;;;5060645;27;89312;-55
2023/10/26 07:51:01;;;;;;;2.93;1.60;;;;;;;;;;5060082;27;87317;-55
2023/10/26 07:53:29;;;;;;;1.67;1.37;;;;;;;;;;5058923;27;87551;-55
2023/10/26 07:55:58;;;;;;;3.50;2.53;;;;;;;;;;5054244;27;89005;-55
2023/10/26 07:58:28;;;;;;;2.93;1.80;;;;;;;;;;5059589;27;87716;-55
2023/10/26 08:00:56;;;;;;;3.23;2.27;;;;;;;;;;5060262;27;89935;-55
2023/10/26 08:03:25;;;;;;;2.50;1.97;;;;;;;;;;5060588;27;87635;-55
2023/10/26 08:05:57;;;;;;;4.23;2.40;;;;;;;;;;5060725;27;88483;-55
2023/10/26 08:08:25;;;;;;;3.73;1.73;;;;;;;;;;5060174;27;90060;-55
2023/10/26 08:10:53;;;;;;;3.17;2.43;;;;;;;;;;5056784;27;88641;-53
2023/10/26 08:13:22;;;;;;;3.13;1.83;;;;;;;;;;5055485;27;88966;-55
2023/10/26 08:15:51;;;;;;;4.07;2.30;;;;;;;;;;5060496;27;88719;-55
2023/10/26 08:18:42;;;;;;;2.70;1.83;;;;;;;;;;5060560;27;87527;-55
2023/10/26 08:21:10;;;;;;;3.70;2.43;;;;;;;;;;5060141;27;87681;-55
2023/10/26 08:23:39;;;;;;;3.23;2.30;;;;;;;;;;5057456;27;87660;-55
2023/10/26 08:26:07;;;;;;;3.50;2.63;;;;;;;;;;5059843;27;88527;-55
2023/10/26 08:28:36;;;;;;;4.80;2.33;;;;;;;;;;5058680;27;89037;-55
2023/10/26 08:31:06;;;;;;;4.60;2.17;;;;;;;;;;5061167;27;87967;-55
2023/10/26 08:33:35;;;;;;;4.17;2.60;;;;;;;;;;5053831;27;88127;-56
2023/10/26 08:36:04;;;;;;;5.03;2.53;;;;;;;;;;5065032;27;87567;-54
2023/10/26 08:38:33;;;;;;;3.83;2.50;;;;;;;;;;5059199;27;89174;-55
2023/10/26 08:41:02;;;;;;;5.77;2.30;;;;;;;;;;5065399;27;89011;-55
2023/10/26 08:43:30;;;;;;;6.60;2.67;;;;;;;;;;5065400;27;87708;-55
2023/10/26 08:46:00;;;;;;;7.87;3.30;;;;;;;;;;5062859;27;89482;-55
2023/10/26 08:48:30;;;;;;;4.20;2.80;;;;;;;;;;5056614;27;89092;-55
2023/10/26 08:50:59;;;;;;;5.63;3.70;;;;;;;;;;5063462;27;87650;-55
2023/10/26 08:53:27;;;;;;;5.10;2.80;;;;;;;;;;5063394;27;88021;-55
2023/10/26 08:55:55;;;;;;;4.03;2.57;;;;;;;;;;5062989;27;89682;-56
2023/10/26 08:58:24;;;;;;;5.40;2.90;;;;;;;;;;5062526;27;89174;-56
2023/10/26 09:00:52;;;;;;;4.93;3.47;;;;;;;;;;5063179;27;89587;-56
2023/10/26 09:03:22;;;;;;;4.13;3.20;;;;;;;;;;5060620;27;87713;-56
2023/10/26 09:05:53;;;;;;;3.77;2.57;;;;;;;;;;5059638;27;88459;-55
2023/10/26 09:08:22;;;;;;;8.10;3.73;;;;;;;;;;5063282;27;89156;-55
2023/10/26 09:10:51;;;;;;;6.07;3.33;;;;;;;;;;5061820;27;87454;-56
2023/10/26 09:13:29;;;;;;;4.13;3.17;;;;;;;;;;5060072;27;87747;-56
2023/10/26 09:15:58;;;;;;;4.97;3.17;;;;;;;;;;5063084;27;89602;-56
2023/10/26 09:18:27;;;;;;;7.97;4.03;;;;;;;;;;5057054;27;89219;-56
2023/10/26 09:21:03;;;;;;;4.80;2.63;;;;;;;;;;5059939;27;87663;-56
2023/10/26 09:23:32;;;;;;;5.47;3.47;;;;;;;;;;5061764;27;88569;-56
2023/10/26 09:26:01;;;;;;;4.50;3.33;;;;;;;;;;5066133;27;89605;-56
2023/10/26 09:28:30;;;;;;;4.10;3.23;;;;;;;;;;5064919;27;89263;-56
2023/10/26 09:30:59;;;;;;;6.33;4.10;;;;;;;;;;5062624;27;88762;-56
2023/10/26 09:33:28;;;;;;;9.00;3.87;;;;;;;;;;5061585;27;87615;-56
2023/10/26 09:35:56;;;;;;;7.13;4.10;;;;;;;;;;5057568;27;89647;-57
2023/10/26 09:38:36;;;;;;;5.80;4.23;;;;;;;;;;5057713;27;89153;-56
2023/10/26 09:41:05;;;;;;;7.53;4.73;;;;;;;;;;5056821;27;88439;-56
2023/10/26 09:43:33;;;;;;;8.83;4.40;;;;;;;;;;5058001;27;87708;-56
2023/10/26 09:46:02;;;;;;;7.63;4.87;;;;;;;;;;5058408;27;89650;-56
2023/10/26 09:48:30;;;;;;;7.63;4.30;;;;;;;;;;5048862;27;88648;-56
2023/10/26 09:51:01;;;;;;;6.07;3.63;;;;;;;;;;5054881;27;89801;-56
2023/10/26 09:53:33;;;;;;;7.07;4.23;;;;;;;;;;5055398;27;87688;-56
2023/10/26 09:56:04;;;;;;;7.10;4.50;;;;;;;;;;5055326;27;89666;-56
2023/10/26 09:58:35;;;;;;;6.73;4.90;;;;;;;;;;5059457;27;89144;-56
2023/10/26 10:01:04;;;;;;;4.47;3.60;;;;;;;;;;5058595;27;87978;-56
2023/10/26 10:03:33;;;;;;;8.33;4.10;;;;;;;;;;5059340;27;87504;-56
2023/10/26 10:06:03;;;;;;;6.87;3.83;;;;;;;;;;5059418;27;88611;-56
2023/10/26 10:08:50;;;;;;;7.20;4.37;;;;;;;;;;5058801;27;87930;-56
2023/10/26 10:11:19;;;;;;;8.40;5.10;;;;;;;;;;5058548;27;87912;-57
2023/10/26 10:13:48;;;;;;;5.53;4.30;;;;;;;;;;5056125;27;88175;-57
2023/10/26 10:16:35;;;;;;;7.63;4.87;;;;;;;;;;5058354;27;89611;-56
2023/10/26 10:19:17;;;;;;;6.10;4.17;;;;;;;;;;5059404;27;88012;-56
2023/10/26 10:21:47;;;;;;;9.13;4.53;;;;;;;;;;5058801;27;88839;-56
2023/10/26 10:24:37;;;;;;;9.57;4.77;;;;;;;;;;5059259;27;88004;-56
2023/10/26 10:27:10;;;;;;;8.60;4.73;;;;;;;;;;5056549;27;88558;-56
2023/10/26 10:29:38;;;;;;;10.53;4.63;;;;;;;;;;5053911;27;87887;-56
2023/10/26 10:32:07;;;;;;;7.23;3.97;;;;;;;;;;5061696;27;87926;-56
2023/10/26 10:34:42;;;;;;;10.90;4.93;;;;;;;;;;5060919;27;89605;-56
2023/10/26 10:37:15;;;;;;;6.00;4.20;;;;;;;;;;5061673;27;88397;-56
2023/10/26 10:40:01;;;;;;;7.83;4.67;;;;;;;;;;5061064;27;88993;-56
2023/10/26 10:42:31;;;;;;;7.53;4.83;;;;;;;;;;5043574;27;89974;-56
2023/10/26 10:44:59;;;;;;;8.87;4.93;;;;;;;;;;5046203;27;87845;-56
2023/10/26 10:47:30;;;;;;;9.07;4.80;;;;;;;;;;5054834;27;89599;-56
2023/10/26 10:50:13;;;;;;;7.17;4.83;;;;;;;;;;5050840;27;89792;-56
2023/10/26 10:52:42;;;;;;;6.13;4.07;;;;;;;;;;5058032;27;87674;-55
2023/10/26 10:55:10;;;;;;;7.80;5.00;;;;;;;;;;5060544;27;87896;-54
2023/10/26 10:57:53;;;;;;;10.77;4.40;;;;;;;;;;5056736;27;89622;-57
2023/10/26 11:00:22;;;;;;;8.50;5.20;;;;;;;;;;5059890;27;88092;-60
2023/10/26 11:02:52;;;;;;;6.80;4.67;;;;;;;;;;5061057;27;88555;-62
2023/10/26 11:05:20;;;;;;;11.80;4.83;;;;;;;;;;5061040;27;87874;-64
2023/10/26 11:07:49;;;;;;;7.80;4.77;;;;;;;;;;5061335;27;89863;-63
2023/10/26 11:10:17;;;;;;;9.17;4.03;;;;;;;;;;5061384;27;87536;-62
2023/10/26 11:12:51;;;;;;;8.67;4.60;;;;;;;;;;5060804;27;88872;-61
2023/10/26 11:15:20;;;;;;;4.93;3.97;;;;;;;;;;5061172;27;87531;-62
2023/10/26 11:17:49;;;;;;;6.50;4.50;;;;;;;;;;5046839;27;89702;-63
2023/10/26 11:20:37;;;;;;;14.10;4.33;;;;;;;;;;5057797;27;89148;-63
2023/10/26 11:23:06;;;;;;;5.80;4.23;;;;;;;;;;5049511;27;89542;-63
2023/10/26 11:25:34;;;;;;;6.13;3.53;;;;;;;;;;5054637;27;89216;-63
2023/10/26 11:28:03;;;;;;;7.33;3.57;;;;;;;;;;5053008;27;89578;-63
2023/10/26 11:30:34;;;;;;;8.30;4.27;;;;;;;;;;5058984;27;89900;-63
2023/10/26 11:33:02;;;;;;;4.83;3.57;;;;;;;;;;5061303;27;89438;-63
2023/10/26 11:35:31;;;;;;;6.53;3.80;;;;;;;;;;5060815;27;87329;-63
2023/10/26 11:38:05;;;;;;;6.53;4.07;;;;;;;;;;5055567;27;89663;-63
2023/10/26 11:40:34;;;;;;;9.40;3.87;;;;;;;;;;5058112;27;91911;-63
2023/10/26 11:43:03;;;;;;;6.20;3.50;;;;;;;;;;5059155;27;88869;-63
2023/10/26 11:45:36;;;;;;;4.90;3.27;;;;;;;;;;5056778;27;87975;-63
2023/10/26 11:48:05;;;;;;;4.50;3.90;;;;;;;;;;5060766;27;89631;-63
2023/10/26 11:50:34;;;;;;;6.13;4.30;;;;;;;;;;5060479;27;89177;-63
2023/10/26 11:53:03;;;;;;;5.10;3.37;;;;;;;;;;5060866;27;88690;-62
2023/10/26 11:55:32;;;;;;;3.87;2.87;;;;;;;;;;5060178;27;88733;-63
2023/10/26 11:58:01;;;;;;;5.03;3.87;;;;;;;;;;5059197;27;89471;-62
2023/10/26 12:00:29;;;;;;;4.73;2.87;;;;;;;;;;5060309;27;89168;-63
2023/10/26 12:02:59;;;;;;;7.90;4.10;;;;;;;;;;5060232;27;88873;-62
2023/10/26 12:05:28;;;;;;;5.93;3.73;;;;;;;;;;5060459;27;87523;-63
2023/10/26 12:07:56;;;;;;;7.20;3.30;;;;;;;;;;5058402;27;89410;-62
2023/10/26 12:10:25;;;;;;;4.80;2.67;;;;;;;;;;5060632;27;89072;-62
2023/10/26 12:12:53;;;;;;;5.40;3.53;;;;;;;;;;5060668;27;88912;-62
2023/10/26 12:15:22;;;;;;;7.70;4.30;;;;;;;;;;5053561;27;87614;-62
2023/10/26 12:17:50;;;;;;;4.60;3.27;;;;;;;;;;5059375;27;90123;-62
2023/10/26 12:20:20;;;;;;;5.67;4.47;;;;;;;;;;5056172;27;90511;-62
2023/10/26 12:22:50;;;;;;;4.03;3.03;;;;;;;;;;5057869;27;89925;-65
2023/10/26 12:25:18;;;;;;;5.67;3.00;;;;;;;;;;5058553;27;88337;-62
2023/10/26 12:27:46;;;;;;;4.43;3.50;;;;;;;;;;5058637;27;89734;-62
2023/10/26 12:30:35;;;;;;;4.87;2.67;;;;;;;;;;5050815;27;90622;-62
2023/10/26 12:33:03;;;;;;;3.30;2.53;;;;;;;;;;5059695;27;88850;-62
2023/10/26 12:35:33;;;;;;;4.27;3.23;;;;;;;;;;5060542;27;87706;-64
2023/10/26 12:38:01;;;;;;;5.20;2.93;;;;;;;;;;5060419;27;90085;-64
2023/10/26 12:40:30;;;;;;;4.23;2.73;;;;;;;;;;5059722;27;91402;-64
2023/10/26 12:42:58;;;;;;;4.73;3.13;;;;;;;;;;5060285;27;88814;-64
2023/10/26 12:45:27;;;;;;;5.60;3.10;;;;;;;;;;5059733;27;87871;-64
2023/10/26 12:47:55;;;;;;;3.50;2.53;;;;;;;;;;5058528;27;89828;-64
2023/10/26 12:50:24;;;;;;;3.93;3.30;;;;;;;;;;5059804;27;89162;-64
2023/10/26 12:52:54;;;;;;;3.60;2.57;;;;;;;;;;5060113;27;88765;-64
2023/10/26 12:55:23;;;;;;;3.20;2.13;;;;;;;;;;5060139;27;87646;-64
2023/10/26 12:57:52;;;;;;;3.63;2.47;;;;;;;;;;5058992;27;89746;-64
2023/10/26 13:00:23;;;;;;;2.90;2.50;;;;;;;;;;5059761;27;88955;-64
2023/10/26 13:02:51;;;;;;;4.67;2.37;;;;;;;;;;5060157;27;87489;-64
2023/10/26 13:05:19;;;;;;;3.87;2.33;;;;;;;;;;5048458;27;87233;-63
2023/10/26 13:07:48;;;;;;;5.27;3.03;;;;;;;;;;5056562;27;89678;-64
2023/10/26 13:10:17;;;;;;;4.07;2.77;;;;;;;;;;5059047;27;90081;-63
2023/10/26 13:12:47;;;;;;;3.30;2.30;;;;;;;;;;5059835;27;89787;-64
2023/10/26 13:15:16;;;;;;;3.17;2.23;;;;;;;;;;5063402;27;87644;-63
2023/10/26 13:17:48;;;;;;;3.53;2.87;;;;;;;;;;5062965;27;89802;-63
2023/10/26 13:20:17;;;;;;;5.53;2.60;;;;;;;;;;5063281;27;89250;-63
2023/10/26 13:22:45;;;;;;;2.37;2.10;;;;;;;;;;5056506;27;88786;-63
2023/10/26 13:25:14;;;;;;;4.03;2.53;;;;;;;;;;5062635;27;87658;-63
2023/10/26 13:27:43;;;;;;;3.53;2.50;;;;;;;;;;5063048;27;89645;-64
2023/10/26 13:30:13;;;;;;;4.60;2.37;;;;;;;;;;5054612;27;88011;-64
2023/10/26 13:32:42;;;;;;;4.87;3.00;;;;;;;;;;5062740;27;88862;-64
2023/10/26 13:35:10;;;;;;;4.17;2.60;;;;;;;;;;5062657;27;88408;-63
2023/10/26 13:37:39;;;;;;;3.63;2.20;;;;;;;;;;5060583;27;89669;-64
2023/10/26 13:40:08;;;;;;;4.43;2.80;;;;;;;;;;5050383;27;88970;-63
2023/10/26 13:42:37;;;;;;;2.93;2.33;;;;;;;;;;5056936;27;89111;-64
2023/10/26 13:45:07;;;;;;;3.23;2.53;;;;;;;;;;5050989;27;87642;-63
2023/10/26 13:47:36;;;;;;;5.37;2.73;;;;;;;;;;5059184;27;92755;-63
2023/10/26 13:50:04;;;;;;;6.33;2.80;;;;;;;;;;5059151;27;89148;-64
2023/10/26 13:52:33;;;;;;;4.10;2.50;;;;;;;;;;5065729;27;88521;-63
2023/10/26 13:55:01;;;;;;;5.53;3.17;;;;;;;;;;5059262;27;87660;-64
2023/10/26 13:57:29;;;;;;;3.20;2.40;;;;;;;;;;5062689;27;90106;-64
2023/10/26 13:59:58;;;;;;;4.97;3.07;;;;;;;;;;5058806;27;90132;-63
2023/10/26 14:02:28;;;;;;;4.67;3.30;;;;;;;;;;5055753;27;90000;-63
2023/10/26 14:04:56;;;;;;;6.03;3.07;;;;;;;;;;5059167;27;87679;-63
2023/10/26 14:07:25;;;;;;;5.57;2.57;;;;;;;;;;5059144;27;88648;-63
2023/10/26 14:09:53;;;;;;;4.27;1.87;;;;;;;;;;5059257;27;89129;-64
2023/10/26 14:12:21;;;;;;;3.63;2.60;;;;;;;;;;5061328;27;88863;-64
2023/10/26 14:14:50;;;;;;;5.03;2.40;;;;;;;;;;5066434;27;87601;-60
2023/10/26 14:17:18;;;;;;;5.97;3.10;;;;;;;;;;5059369;27;89748;-61
2023/10/26 14:19:48;;;;;;;4.03;2.63;;;;;;;;;;5051665;27;90788;-63
2023/10/26 14:22:16;;;;;;;4.67;2.93;;;;;;;;;;5047733;27;88931;-58
2023/10/26 14:24:45;;;;;;;3.07;2.00;;;;;;;;;;5058466;27;87841;-60
2023/10/26 14:27:14;;;;;;;3.27;2.60;;;;;;;;;;5059229;27;89610;-56
2023/10/26 14:29:42;;;;;;;4.43;2.60;;;;;;;;;;5058185;27;87960;-63
2023/10/26 14:32:10;;;;;;;3.27;2.20;;;;;;;;;;5059447;27;87950;-64
2023/10/26 14:34:39;;;;;;;3.50;2.47;;;;;;;;;;5060198;27;88249;-63
2023/10/26 14:37:09;;;;;;;2.90;2.27;;;;;;;;;;5058890;27;90036;-64
2023/10/26 14:39:37;;;;;;;4.03;2.27;;;;;;;;;;5059139;27;89114;-65
2023/10/26 14:42:06;;;;;;;2.53;1.90;;;;;;;;;;5059163;27;88948;-67
2023/10/26 14:44:34;;;;;;;3.83;2.47;;;;;;;;;;5058712;27;87705;-65
2023/10/26 14:47:03;;;;;;;4.73;2.67;;;;;;;;;;5058078;27;89948;-66
2023/10/26 14:49:31;;;;;;;2.77;2.37;;;;;;;;;;5058135;27;89187;-66
2023/10/26 14:52:01;;;;;;;3.80;2.20;;;;;;;;;;5058211;27;89885;-65
2023/10/26 14:54:31;;;;;;;6.40;2.33;;;;;;;;;;5050869;27;88041;-65